sensor_id;sensor_type;location;lat;lon;timestamp;temperature;humidity
42907;DHT22;28552;51.146;6.576;2023-06-04T00:01:57;13.30;70.80
42907;DHT22;28552;51.146;6.576;2023-06-04T00:04:58;13.30;70.90
42907;DHT22;28552;51.146;6.576;2023-06-04T00:07:58;13.40;70.90
42907;DHT22;28552;51.146;6.576;2023-06-04T00:10:59;13.50;70.80
42907;DHT22;28552;51.146;6.576;2023-06-04T00:14:00;13.50;70.40
42907;DHT22;28552;51.146;6.576;2023-06-04T00:17:01;13.40;70.40
42907;DHT22;28552;51.146;6.576;2023-06-04T00:20:02;13.30;70.30
42907;DHT22;28552;51.146;6.576;2023-06-04T00:23:04;13.30;70.80
42907;DHT22;28552;51.146;6.576;2023-06-04T00:26:05;13.20;71.20
42907;DHT22;28552;51.146;6.576;2023-06-04T00:29:06;13.10;71.20
42907;DHT22;28552;51.146;6.576;2023-06-04T00:32:07;13.10;71.40
42907;DHT22;28552;51.146;6.576;2023-06-04T00:35:08;13.00;71.30
42907;DHT22;28552;51.146;6.576;2023-06-04T00:38:10;13.00;71.00
42907;DHT22;28552;51.146;6.576;2023-06-04T00:41:11;13.00;71.70
42907;DHT22;28552;51.146;6.576;2023-06-04T00:44:11;12.90;71.30
42907;DHT22;28552;51.146;6.576;2023-06-04T00:47:12;12.80;71.60
42907;DHT22;28552;51.146;6.576;2023-06-04T00:50:14;12.70;72.00
42907;DHT22;28552;51.146;6.576;2023-06-04T00:53:14;12.60;72.60
42907;DHT22;28552;51.146;6.576;2023-06-04T00:56:15;12.40;73.20
42907;DHT22;28552;51.146;6.576;2023-06-04T00:59:16;12.20;74.00
42907;DHT22;28552;51.146;6.576;2023-06-04T01:02:20;12.10;75.00
42907;DHT22;28552;51.146;6.576;2023-06-04T01:05:36;11.90;75.90
42907;DHT22;28552;51.146;6.576;2023-06-04T01:08:39;11.90;76.30
42907;DHT22;28552;51.146;6.576;2023-06-04T01:11:43;11.80;76.80
42907;DHT22;28552;51.146;6.576;2023-06-04T01:14:43;11.70;77.40
42907;DHT22;28552;51.146;6.576;2023-06-04T01:17:49;11.60;77.70
42907;DHT22;28552;51.146;6.576;2023-06-04T01:20:52;11.50;78.00
42907;DHT22;28552;51.146;6.576;2023-06-04T01:23:53;11.50;78.10
42907;DHT22;28552;51.146;6.576;2023-06-04T01:27:01;11.50;78.50
42907;DHT22;28552;51.146;6.576;2023-06-04T01:30:03;11.40;78.80
42907;DHT22;28552;51.146;6.576;2023-06-04T01:33:04;11.40;79.20
42907;DHT22;28552;51.146;6.576;2023-06-04T01:36:06;11.30;79.60
42907;DHT22;28552;51.146;6.576;2023-06-04T01:39:10;11.20;80.40
42907;DHT22;28552;51.146;6.576;2023-06-04T01:42:11;11.10;81.00
42907;DHT22;28552;51.146;6.576;2023-06-04T01:45:12;11.00;81.70
42907;DHT22;28552;51.146;6.576;2023-06-04T01:48:12;11.00;82.10
42907;DHT22;28552;51.146;6.576;2023-06-04T01:51:13;11.10;82.20
42907;DHT22;28552;51.146;6.576;2023-06-04T01:54:13;11.10;82.40
42907;DHT22;28552;51.146;6.576;2023-06-04T01:57:14;11.10;83.00
42907;DHT22;28552;51.146;6.576;2023-06-04T02:00:15;11.20;82.30
42907;DHT22;28552;51.146;6.576;2023-06-04T02:03:15;11.20;82.10
42907;DHT22;28552;51.146;6.576;2023-06-04T02:06:16;11.10;82.20
42907;DHT22;28552;51.146;6.576;2023-06-04T02:09:17;11.10;82.20
42907;DHT22;28552;51.146;6.576;2023-06-04T02:12:18;11.10;82.20
42907;DHT22;28552;51.146;6.576;2023-06-04T02:15:19;11.10;82.40
42907;DHT22;28552;51.146;6.576;2023-06-04T02:18:20;11.00;82.70
42907;DHT22;28552;51.146;6.576;2023-06-04T02:21:23;11.00;83.20
42907;DHT22;28552;51.146;6.576;2023-06-04T02:24:23;10.90;83.40
42907;DHT22;28552;51.146;6.576;2023-06-04T02:27:24;10.90;83.30
42907;DHT22;28552;51.146;6.576;2023-06-04T02:30:24;10.90;83.30
42907;DHT22;28552;51.146;6.576;2023-06-04T02:33:25;10.80;83.50
42907;DHT22;28552;51.146;6.576;2023-06-04T02:36:26;10.70;83.80
42907;DHT22;28552;51.146;6.576;2023-06-04T02:39:26;10.70;84.20
42907;DHT22;28552;51.146;6.576;2023-06-04T02:42:27;10.70;84.30
42907;DHT22;28552;51.146;6.576;2023-06-04T02:45:28;10.80;84.50
42907;DHT22;28552;51.146;6.576;2023-06-04T02:48:29;10.80;84.20
42907;DHT22;28552;51.146;6.576;2023-06-04T02:51:29;10.80;84.30
42907;DHT22;28552;51.146;6.576;2023-06-04T02:54:30;10.70;84.70
42907;DHT22;28552;51.146;6.576;2023-06-04T02:57:30;10.60;85.20
42907;DHT22;28552;51.146;6.576;2023-06-04T03:00:31;10.50;85.60
42907;DHT22;28552;51.146;6.576;2023-06-04T03:03:33;10.40;86.20
42907;DHT22;28552;51.146;6.576;2023-06-04T03:06:33;10.30;86.50
42907;DHT22;28552;51.146;6.576;2023-06-04T03:09:35;10.20;86.90
42907;DHT22;28552;51.146;6.576;2023-06-04T03:12:36;10.10;87.50
42907;DHT22;28552;51.146;6.576;2023-06-04T03:15:36;10.10;88.10
42907;DHT22;28552;51.146;6.576;2023-06-04T03:18:40;10.00;88.80
42907;DHT22;28552;51.146;6.576;2023-06-04T03:21:41;10.00;89.10
42907;DHT22;28552;51.146;6.576;2023-06-04T03:24:42;10.00;89.60
42907;DHT22;28552;51.146;6.576;2023-06-04T03:27:42;9.90;90.20
42907;DHT22;28552;51.146;6.576;2023-06-04T03:30:43;9.90;90.10
42907;DHT22;28552;51.146;6.576;2023-06-04T03:33:44;9.90;90.30
42907;DHT22;28552;51.146;6.576;2023-06-04T03:36:45;9.80;90.40
42907;DHT22;28552;51.146;6.576;2023-06-04T03:39:45;9.80;90.70
42907;DHT22;28552;51.146;6.576;2023-06-04T03:42:46;9.70;90.90
42907;DHT22;28552;51.146;6.576;2023-06-04T03:45:47;9.70;91.00
42907;DHT22;28552;51.146;6.576;2023-06-04T03:48:47;9.60;91.30
42907;DHT22;28552;51.146;6.576;2023-06-04T03:51:48;9.60;91.50
42907;DHT22;28552;51.146;6.576;2023-06-04T03:54:48;9.60;91.80
42907;DHT22;28552;51.146;6.576;2023-06-04T03:57:49;9.60;92.10
42907;DHT22;28552;51.146;6.576;2023-06-04T04:00:49;9.60;92.30
42907;DHT22;28552;51.146;6.576;2023-06-04T04:03:51;9.70;92.40
42907;DHT22;28552;51.146;6.576;2023-06-04T04:06:52;9.80;92.50
42907;DHT22;28552;51.146;6.576;2023-06-04T04:09:52;9.90;92.60
42907;DHT22;28552;51.146;6.576;2023-06-04T04:12:53;10.00;92.60
42907;DHT22;28552;51.146;6.576;2023-06-04T04:15:55;10.10;92.60
42907;DHT22;28552;51.146;6.576;2023-06-04T04:18:55;10.20;92.60
42907;DHT22;28552;51.146;6.576;2023-06-04T04:21:56;10.30;92.70
42907;DHT22;28552;51.146;6.576;2023-06-04T04:24:56;10.30;92.70
42907;DHT22;28552;51.146;6.576;2023-06-04T04:27:57;10.40;92.90
42907;DHT22;28552;51.146;6.576;2023-06-04T04:31:01;10.40;93.00
42907;DHT22;28552;51.146;6.576;2023-06-04T04:34:02;10.50;93.10
42907;DHT22;28552;51.146;6.576;2023-06-04T04:37:08;10.50;93.10
42907;DHT22;28552;51.146;6.576;2023-06-04T04:40:10;10.70;93.10
42907;DHT22;28552;51.146;6.576;2023-06-04T04:43:12;10.80;93.00
42907;DHT22;28552;51.146;6.576;2023-06-04T04:46:13;10.90;92.90
42907;DHT22;28552;51.146;6.576;2023-06-04T04:49:13;11.00;92.90
42907;DHT22;28552;51.146;6.576;2023-06-04T04:52:14;11.10;92.90
42907;DHT22;28552;51.146;6.576;2023-06-04T04:55:14;11.10;93.10
42907;DHT22;28552;51.146;6.576;2023-06-04T04:58:15;11.10;93.10
42907;DHT22;28552;51.146;6.576;2023-06-04T05:01:16;11.20;93.10
42907;DHT22;28552;51.146;6.576;2023-06-04T05:04:16;11.20;93.20
42907;DHT22;28552;51.146;6.576;2023-06-04T05:07:17;11.30;93.30
42907;DHT22;28552;51.146;6.576;2023-06-04T05:10:17;11.40;93.30
42907;DHT22;28552;51.146;6.576;2023-06-04T05:13:18;11.40;93.30
42907;DHT22;28552;51.146;6.576;2023-06-04T05:16:19;11.50;93.40
42907;DHT22;28552;51.146;6.576;2023-06-04T05:19:20;11.50;93.30
42907;DHT22;28552;51.146;6.576;2023-06-04T05:22:21;11.70;93.20
42907;DHT22;28552;51.146;6.576;2023-06-04T05:25:23;11.90;93.00
42907;DHT22;28552;51.146;6.576;2023-06-04T05:28:24;12.00;92.90
42907;DHT22;28552;51.146;6.576;2023-06-04T05:31:26;12.20;93.00
42907;DHT22;28552;51.146;6.576;2023-06-04T05:34:27;12.30;93.00
42907;DHT22;28552;51.146;6.576;2023-06-04T05:37:30;12.40;93.00
42907;DHT22;28552;51.146;6.576;2023-06-04T05:40:30;12.60;92.90
42907;DHT22;28552;51.146;6.576;2023-06-04T05:43:31;12.60;92.90
42907;DHT22;28552;51.146;6.576;2023-06-04T05:46:32;12.80;92.90
42907;DHT22;28552;51.146;6.576;2023-06-04T05:49:34;12.90;92.70
42907;DHT22;28552;51.146;6.576;2023-06-04T05:52:34;13.10;92.60
42907;DHT22;28552;51.146;6.576;2023-06-04T05:55:37;13.30;92.40
42907;DHT22;28552;51.146;6.576;2023-06-04T05:58:37;13.50;92.00
42907;DHT22;28552;51.146;6.576;2023-06-04T06:01:38;13.80;92.00
42907;DHT22;28552;51.146;6.576;2023-06-04T06:04:39;14.00;91.70
42907;DHT22;28552;51.146;6.576;2023-06-04T06:07:39;14.10;91.00
42907;DHT22;28552;51.146;6.576;2023-06-04T06:10:40;14.30;90.30
42907;DHT22;28552;51.146;6.576;2023-06-04T06:13:41;14.50;89.80
42907;DHT22;28552;51.146;6.576;2023-06-04T06:16:41;14.60;88.80
42907;DHT22;28552;51.146;6.576;2023-06-04T06:19:42;14.80;88.90
42907;DHT22;28552;51.146;6.576;2023-06-04T06:22:43;14.90;88.00
42907;DHT22;28552;51.146;6.576;2023-06-04T06:25:44;15.10;88.10
42907;DHT22;28552;51.146;6.576;2023-06-04T06:28:45;15.20;87.00
42907;DHT22;28552;51.146;6.576;2023-06-04T06:31:46;15.50;86.30
42907;DHT22;28552;51.146;6.576;2023-06-04T06:34:47;15.80;84.80
42907;DHT22;28552;51.146;6.576;2023-06-04T06:37:47;16.00;83.70
42907;DHT22;28552;51.146;6.576;2023-06-04T06:40:48;16.10;82.80
42907;DHT22;28552;51.146;6.576;2023-06-04T06:43:49;16.30;82.10
42907;DHT22;28552;51.146;6.576;2023-06-04T06:46:51;16.40;81.20
42907;DHT22;28552;51.146;6.576;2023-06-04T06:49:51;16.60;80.60
42907;DHT22;28552;51.146;6.576;2023-06-04T06:52:52;16.80;79.90
42907;DHT22;28552;51.146;6.576;2023-06-04T06:55:52;17.10;79.10
42907;DHT22;28552;51.146;6.576;2023-06-04T06:58:53;17.30;78.40
42907;DHT22;28552;51.146;6.576;2023-06-04T07:01:54;17.50;77.50
42907;DHT22;28552;51.146;6.576;2023-06-04T07:04:54;17.70;77.10
42907;DHT22;28552;51.146;6.576;2023-06-04T07:07:55;17.80;76.60
42907;DHT22;28552;51.146;6.576;2023-06-04T07:10:58;17.90;75.80
42907;DHT22;28552;51.146;6.576;2023-06-04T07:13:58;18.00;76.00
42907;DHT22;28552;51.146;6.576;2023-06-04T07:17:00;18.20;74.90
42907;DHT22;28552;51.146;6.576;2023-06-04T07:20:01;18.50;74.40
42907;DHT22;28552;51.146;6.576;2023-06-04T07:23:01;18.70;73.30
42907;DHT22;28552;51.146;6.576;2023-06-04T07:26:02;18.90;72.50
42907;DHT22;28552;51.146;6.576;2023-06-04T07:29:02;19.10;71.80
42907;DHT22;28552;51.146;6.576;2023-06-04T07:32:03;19.30;71.10
42907;DHT22;28552;51.146;6.576;2023-06-04T07:35:04;19.60;70.30
42907;DHT22;28552;51.146;6.576;2023-06-04T07:38:04;19.70;69.60
42907;DHT22;28552;51.146;6.576;2023-06-04T07:41:05;19.90;68.40
42907;DHT22;28552;51.146;6.576;2023-06-04T07:44:06;20.10;68.50
42907;DHT22;28552;51.146;6.576;2023-06-04T07:47:06;20.10;68.30
42907;DHT22;28552;51.146;6.576;2023-06-04T07:50:07;20.10;68.20
42907;DHT22;28552;51.146;6.576;2023-06-04T07:53:08;20.30;67.60
42907;DHT22;28552;51.146;6.576;2023-06-04T07:56:09;20.50;66.20
42907;DHT22;28552;51.146;6.576;2023-06-04T07:59:09;20.60;65.50
42907;DHT22;28552;51.146;6.576;2023-06-04T08:02:10;20.60;65.40
42907;DHT22;28552;51.146;6.576;2023-06-04T08:05:12;20.60;66.00
42907;DHT22;28552;51.146;6.576;2023-06-04T08:08:14;20.70;64.90
42907;DHT22;28552;51.146;6.576;2023-06-04T08:11:15;20.90;64.90
42907;DHT22;28552;51.146;6.576;2023-06-04T08:14:15;21.10;63.70
42907;DHT22;28552;51.146;6.576;2023-06-04T08:17:16;21.30;62.90
42907;DHT22;28552;51.146;6.576;2023-06-04T08:20:17;21.50;61.40
42907;DHT22;28552;51.146;6.576;2023-06-04T08:23:17;21.50;61.40
42907;DHT22;28552;51.146;6.576;2023-06-04T08:26:19;21.60;61.20
42907;DHT22;28552;51.146;6.576;2023-06-04T08:29:19;21.70;60.40
42907;DHT22;28552;51.146;6.576;2023-06-04T08:32:20;21.80;59.70
42907;DHT22;28552;51.146;6.576;2023-06-04T08:35:21;21.80;59.90
42907;DHT22;28552;51.146;6.576;2023-06-04T08:38:21;21.80;59.90
42907;DHT22;28552;51.146;6.576;2023-06-04T08:41:29;21.80;59.60
42907;DHT22;28552;51.146;6.576;2023-06-04T08:44:30;21.80;59.30
42907;DHT22;28552;51.146;6.576;2023-06-04T08:47:34;21.80;58.90
42907;DHT22;28552;51.146;6.576;2023-06-04T08:50:36;21.90;58.30
42907;DHT22;28552;51.146;6.576;2023-06-04T08:53:37;22.10;57.60
42907;DHT22;28552;51.146;6.576;2023-06-04T08:56:38;22.30;57.60
42907;DHT22;28552;51.146;6.576;2023-06-04T08:59:39;22.30;57.00
42907;DHT22;28552;51.146;6.576;2023-06-04T09:02:39;22.40;56.20
42907;DHT22;28552;51.146;6.576;2023-06-04T09:05:40;22.50;55.30
42907;DHT22;28552;51.146;6.576;2023-06-04T09:08:45;22.60;54.60
42907;DHT22;28552;51.146;6.576;2023-06-04T09:11:52;22.80;54.30
42907;DHT22;28552;51.146;6.576;2023-06-04T09:14:53;22.90;54.40
42907;DHT22;28552;51.146;6.576;2023-06-04T09:17:53;23.10;54.10
42907;DHT22;28552;51.146;6.576;2023-06-04T09:24:02;23.30;52.30
42907;DHT22;28552;51.146;6.576;2023-06-04T09:27:14;23.30;51.90
42907;DHT22;28552;51.146;6.576;2023-06-04T09:30:14;23.20;51.40
42907;DHT22;28552;51.146;6.576;2023-06-04T09:33:15;23.20;52.00
42907;DHT22;28552;51.146;6.576;2023-06-04T09:36:17;23.10;52.10
42907;DHT22;28552;51.146;6.576;2023-06-04T09:39:18;23.00;52.00
42907;DHT22;28552;51.146;6.576;2023-06-04T09:42:18;22.80;52.00
42907;DHT22;28552;51.146;6.576;2023-06-04T09:45:27;22.50;52.40
42907;DHT22;28552;51.146;6.576;2023-06-04T09:48:29;22.40;52.70
42907;DHT22;28552;51.146;6.576;2023-06-04T09:51:30;22.20;53.20
42907;DHT22;28552;51.146;6.576;2023-06-04T09:54:36;22.10;53.40
42907;DHT22;28552;51.146;6.576;2023-06-04T09:57:37;22.00;53.10
42907;DHT22;28552;51.146;6.576;2023-06-04T10:00:40;21.90;52.90
42907;DHT22;28552;51.146;6.576;2023-06-04T10:03:47;21.80;52.70
42907;DHT22;28552;51.146;6.576;2023-06-04T10:06:48;21.70;52.70
42907;DHT22;28552;51.146;6.576;2023-06-04T10:09:50;21.70;52.60
42907;DHT22;28552;51.146;6.576;2023-06-04T10:12:57;21.60;53.00
42907;DHT22;28552;51.146;6.576;2023-06-04T10:16:00;21.60;53.10
42907;DHT22;28552;51.146;6.576;2023-06-04T10:19:05;21.50;53.60
42907;DHT22;28552;51.146;6.576;2023-06-04T10:22:07;21.50;53.20
42907;DHT22;28552;51.146;6.576;2023-06-04T10:25:10;21.50;53.30
42907;DHT22;28552;51.146;6.576;2023-06-04T10:28:11;21.50;53.40
42907;DHT22;28552;51.146;6.576;2023-06-04T10:31:12;21.60;53.30
42907;DHT22;28552;51.146;6.576;2023-06-04T10:34:13;21.60;53.60
42907;DHT22;28552;51.146;6.576;2023-06-04T10:37:24;21.70;53.90
42907;DHT22;28552;51.146;6.576;2023-06-04T10:40:32;21.70;53.50
42907;DHT22;28552;51.146;6.576;2023-06-04T10:43:33;21.70;53.60
42907;DHT22;28552;51.146;6.576;2023-06-04T10:46:41;21.70;53.60
42907;DHT22;28552;51.146;6.576;2023-06-04T10:49:41;21.80;53.40
42907;DHT22;28552;51.146;6.576;2023-06-04T10:52:57;21.80;53.90
42907;DHT22;28552;51.146;6.576;2023-06-04T10:55:58;21.80;53.80
42907;DHT22;28552;51.146;6.576;2023-06-04T10:59:00;21.90;53.90
42907;DHT22;28552;51.146;6.576;2023-06-04T11:02:05;21.90;53.60
42907;DHT22;28552;51.146;6.576;2023-06-04T11:05:07;22.00;53.60
42907;DHT22;28552;51.146;6.576;2023-06-04T11:08:10;22.00;53.10
42907;DHT22;28552;51.146;6.576;2023-06-04T11:11:13;22.00;53.80
42907;DHT22;28552;51.146;6.576;2023-06-04T11:14:14;22.00;53.10
42907;DHT22;28552;51.146;6.576;2023-06-04T11:17:16;22.00;52.90
42907;DHT22;28552;51.146;6.576;2023-06-04T11:20:18;21.90;52.40
42907;DHT22;28552;51.146;6.576;2023-06-04T11:23:19;21.90;52.70
42907;DHT22;28552;51.146;6.576;2023-06-04T11:26:20;21.90;53.10
42907;DHT22;28552;51.146;6.576;2023-06-04T11:29:22;22.00;53.20
42907;DHT22;28552;51.146;6.576;2023-06-04T11:32:24;22.00;52.70
42907;DHT22;28552;51.146;6.576;2023-06-04T11:35:25;22.00;52.40
42907;DHT22;28552;51.146;6.576;2023-06-04T11:38:25;22.00;51.80
42907;DHT22;28552;51.146;6.576;2023-06-04T11:41:28;22.10;51.70
42907;DHT22;28552;51.146;6.576;2023-06-04T11:44:29;22.10;52.00
42907;DHT22;28552;51.146;6.576;2023-06-04T11:47:30;22.10;51.60
42907;DHT22;28552;51.146;6.576;2023-06-04T11:50:32;22.20;51.80
42907;DHT22;28552;51.146;6.576;2023-06-04T11:53:32;22.30;52.10
42907;DHT22;28552;51.146;6.576;2023-06-04T11:56:33;22.30;51.90
42907;DHT22;28552;51.146;6.576;2023-06-04T11:59:34;22.40;51.90
42907;DHT22;28552;51.146;6.576;2023-06-04T12:02:36;22.40;51.60
42907;DHT22;28552;51.146;6.576;2023-06-04T12:05:37;22.50;51.00
42907;DHT22;28552;51.146;6.576;2023-06-04T12:08:48;22.50;50.60
42907;DHT22;28552;51.146;6.576;2023-06-04T12:11:48;22.50;50.60
42907;DHT22;28552;51.146;6.576;2023-06-04T12:15:04;22.50;50.80
42907;DHT22;28552;51.146;6.576;2023-06-04T12:18:06;22.50;51.20
42907;DHT22;28552;51.146;6.576;2023-06-04T12:21:17;22.60;51.90
42907;DHT22;28552;51.146;6.576;2023-06-04T12:24:19;22.70;51.30
42907;DHT22;28552;51.146;6.576;2023-06-04T12:27:22;22.70;50.80
42907;DHT22;28552;51.146;6.576;2023-06-04T12:30:34;22.70;51.10
42907;DHT22;28552;51.146;6.576;2023-06-04T12:33:35;22.70;50.50
42907;DHT22;28552;51.146;6.576;2023-06-04T12:36:36;22.70;49.90
42907;DHT22;28552;51.146;6.576;2023-06-04T12:39:36;22.70;49.90
42907;DHT22;28552;51.146;6.576;2023-06-04T12:42:37;22.70;49.70
42907;DHT22;28552;51.146;6.576;2023-06-04T12:45:38;22.70;49.80
42907;DHT22;28552;51.146;6.576;2023-06-04T12:48:38;22.70;49.40
42907;DHT22;28552;51.146;6.576;2023-06-04T12:51:39;22.70;49.60
42907;DHT22;28552;51.146;6.576;2023-06-04T12:54:39;22.70;50.00
42907;DHT22;28552;51.146;6.576;2023-06-04T12:57:40;22.70;50.00
42907;DHT22;28552;51.146;6.576;2023-06-04T13:00:40;22.80;50.50
42907;DHT22;28552;51.146;6.576;2023-06-04T13:03:41;22.80;50.00
42907;DHT22;28552;51.146;6.576;2023-06-04T13:06:42;22.90;49.80
42907;DHT22;28552;51.146;6.576;2023-06-04T13:09:43;22.90;49.70
42907;DHT22;28552;51.146;6.576;2023-06-04T13:12:43;22.90;49.30
42907;DHT22;28552;51.146;6.576;2023-06-04T13:15:44;22.90;48.40
42907;DHT22;28552;51.146;6.576;2023-06-04T13:18:45;22.90;48.20
42907;DHT22;28552;51.146;6.576;2023-06-04T13:21:46;23.00;49.20
42907;DHT22;28552;51.146;6.576;2023-06-04T13:24:46;23.10;48.20
42907;DHT22;28552;51.146;6.576;2023-06-04T13:27:48;23.10;47.70
42907;DHT22;28552;51.146;6.576;2023-06-04T13:30:48;23.10;47.40
42907;DHT22;28552;51.146;6.576;2023-06-04T13:33:49;23.10;46.90
42907;DHT22;28552;51.146;6.576;2023-06-04T13:36:50;23.20;46.50
42907;DHT22;28552;51.146;6.576;2023-06-04T13:39:50;23.30;46.50
42907;DHT22;28552;51.146;6.576;2023-06-04T13:42:51;23.30;45.60
42907;DHT22;28552;51.146;6.576;2023-06-04T13:45:52;23.30;46.20
42907;DHT22;28552;51.146;6.576;2023-06-04T13:48:52;23.30;45.20
42907;DHT22;28552;51.146;6.576;2023-06-04T13:51:53;23.30;44.70
42907;DHT22;28552;51.146;6.576;2023-06-04T13:54:54;23.20;44.50
42907;DHT22;28552;51.146;6.576;2023-06-04T13:57:55;23.20;44.80
42907;DHT22;28552;51.146;6.576;2023-06-04T14:00:55;23.30;45.40
42907;DHT22;28552;51.146;6.576;2023-06-04T14:03:56;23.30;45.30
42907;DHT22;28552;51.146;6.576;2023-06-04T14:06:58;23.40;44.90
42907;DHT22;28552;51.146;6.576;2023-06-04T14:09:59;23.40;45.10
42907;DHT22;28552;51.146;6.576;2023-06-04T14:13:00;23.50;45.20
42907;DHT22;28552;51.146;6.576;2023-06-04T14:16:01;23.40;44.60
42907;DHT22;28552;51.146;6.576;2023-06-04T14:19:02;23.50;44.50
42907;DHT22;28552;51.146;6.576;2023-06-04T14:22:03;23.40;44.30
42907;DHT22;28552;51.146;6.576;2023-06-04T14:25:04;23.50;44.50
42907;DHT22;28552;51.146;6.576;2023-06-04T14:28:06;23.50;44.70
42907;DHT22;28552;51.146;6.576;2023-06-04T14:31:07;23.50;44.30
42907;DHT22;28552;51.146;6.576;2023-06-04T14:34:11;23.50;44.60
42907;DHT22;28552;51.146;6.576;2023-06-04T14:37:15;23.50;44.40
42907;DHT22;28552;51.146;6.576;2023-06-04T14:40:28;23.60;44.40
42907;DHT22;28552;51.146;6.576;2023-06-04T14:43:29;23.70;44.70
42907;DHT22;28552;51.146;6.576;2023-06-04T14:46:29;23.70;44.50
42907;DHT22;28552;51.146;6.576;2023-06-04T14:49:30;23.70;45.30
42907;DHT22;28552;51.146;6.576;2023-06-04T14:52:33;23.80;45.10
42907;DHT22;28552;51.146;6.576;2023-06-04T14:55:34;23.80;45.20
42907;DHT22;28552;51.146;6.576;2023-06-04T14:58:35;23.80;44.80
42907;DHT22;28552;51.146;6.576;2023-06-04T15:01:36;23.80;44.80
42907;DHT22;28552;51.146;6.576;2023-06-04T15:04:37;23.80;44.40
42907;DHT22;28552;51.146;6.576;2023-06-04T15:07:39;23.80;44.70
42907;DHT22;28552;51.146;6.576;2023-06-04T15:10:40;23.70;44.50
42907;DHT22;28552;51.146;6.576;2023-06-04T15:13:40;23.70;44.90
42907;DHT22;28552;51.146;6.576;2023-06-04T15:16:41;23.70;44.90
42907;DHT22;28552;51.146;6.576;2023-06-04T15:19:41;23.70;44.70
42907;DHT22;28552;51.146;6.576;2023-06-04T15:22:42;23.70;44.80
42907;DHT22;28552;51.146;6.576;2023-06-04T15:25:43;23.80;45.00
42907;DHT22;28552;51.146;6.576;2023-06-04T15:28:44;23.80;45.40
42907;DHT22;28552;51.146;6.576;2023-06-04T15:31:45;23.90;45.90
42907;DHT22;28552;51.146;6.576;2023-06-04T15:34:46;24.00;46.00
42907;DHT22;28552;51.146;6.576;2023-06-04T15:37:47;24.00;45.50
42907;DHT22;28552;51.146;6.576;2023-06-04T15:40:47;24.10;46.00
42907;DHT22;28552;51.146;6.576;2023-06-04T15:43:50;24.10;45.80
42907;DHT22;28552;51.146;6.576;2023-06-04T15:46:51;24.10;46.30
42907;DHT22;28552;51.146;6.576;2023-06-04T15:49:51;24.10;45.40
42907;DHT22;28552;51.146;6.576;2023-06-04T15:52:52;24.10;45.20
42907;DHT22;28552;51.146;6.576;2023-06-04T15:55:52;24.00;44.90
42907;DHT22;28552;51.146;6.576;2023-06-04T15:58:53;23.90;44.80
42907;DHT22;28552;51.146;6.576;2023-06-04T16:01:54;23.90;44.80
42907;DHT22;28552;51.146;6.576;2023-06-04T16:04:55;23.90;45.30
42907;DHT22;28552;51.146;6.576;2023-06-04T16:07:56;23.90;45.10
42907;DHT22;28552;51.146;6.576;2023-06-04T16:10:56;23.90;44.80
42907;DHT22;28552;51.146;6.576;2023-06-04T16:13:57;23.90;44.50
42907;DHT22;28552;51.146;6.576;2023-06-04T16:16:58;23.90;44.70
42907;DHT22;28552;51.146;6.576;2023-06-04T16:19:58;23.90;44.70
42907;DHT22;28552;51.146;6.576;2023-06-04T16:22:59;24.00;44.80
42907;DHT22;28552;51.146;6.576;2023-06-04T16:26:00;24.10;44.80
42907;DHT22;28552;51.146;6.576;2023-06-04T16:29:00;24.10;44.60
42907;DHT22;28552;51.146;6.576;2023-06-04T16:32:01;24.10;44.40
42907;DHT22;28552;51.146;6.576;2023-06-04T16:35:01;24.10;44.20
42907;DHT22;28552;51.146;6.576;2023-06-04T16:38:03;24.10;44.20
42907;DHT22;28552;51.146;6.576;2023-06-04T16:41:04;24.10;44.60
42907;DHT22;28552;51.146;6.576;2023-06-04T16:44:05;24.20;44.10
42907;DHT22;28552;51.146;6.576;2023-06-04T16:47:06;24.30;44.60
42907;DHT22;28552;51.146;6.576;2023-06-04T16:50:07;24.30;44.30
42907;DHT22;28552;51.146;6.576;2023-06-04T16:53:07;24.40;44.20
42907;DHT22;28552;51.146;6.576;2023-06-04T16:56:08;24.40;44.40
42907;DHT22;28552;51.146;6.576;2023-06-04T16:59:09;24.40;44.10
42907;DHT22;28552;51.146;6.576;2023-06-04T17:02:10;24.40;43.80
42907;DHT22;28552;51.146;6.576;2023-06-04T17:05:10;24.50;43.70
42907;DHT22;28552;51.146;6.576;2023-06-04T17:08:12;24.50;43.60
42907;DHT22;28552;51.146;6.576;2023-06-04T17:11:13;24.50;43.30
42907;DHT22;28552;51.146;6.576;2023-06-04T17:14:14;24.50;42.60
42907;DHT22;28552;51.146;6.576;2023-06-04T17:17:15;24.50;42.20
42907;DHT22;28552;51.146;6.576;2023-06-04T17:20:16;24.40;42.20
42907;DHT22;28552;51.146;6.576;2023-06-04T17:23:25;24.30;42.90
42907;DHT22;28552;51.146;6.576;2023-06-04T17:26:26;24.30;43.20
42907;DHT22;28552;51.146;6.576;2023-06-04T17:29:27;24.20;42.60
42907;DHT22;28552;51.146;6.576;2023-06-04T17:32:28;24.20;42.70
42907;DHT22;28552;51.146;6.576;2023-06-04T17:35:28;24.10;42.60
42907;DHT22;28552;51.146;6.576;2023-06-04T17:38:29;24.10;42.90
42907;DHT22;28552;51.146;6.576;2023-06-04T17:41:30;24.10;43.20
42907;DHT22;28552;51.146;6.576;2023-06-04T17:44:30;24.20;43.20
42907;DHT22;28552;51.146;6.576;2023-06-04T17:47:31;24.30;43.40
42907;DHT22;28552;51.146;6.576;2023-06-04T17:50:31;24.30;44.10
42907;DHT22;28552;51.146;6.576;2023-06-04T17:53:32;24.30;43.60
42907;DHT22;28552;51.146;6.576;2023-06-04T17:56:33;24.30;43.80
42907;DHT22;28552;51.146;6.576;2023-06-04T17:59:33;24.20;43.90
42907;DHT22;28552;51.146;6.576;2023-06-04T18:02:34;24.10;44.10
42907;DHT22;28552;51.146;6.576;2023-06-04T18:05:35;24.00;44.40
42907;DHT22;28552;51.146;6.576;2023-06-04T18:08:35;23.90;44.70
42907;DHT22;28552;51.146;6.576;2023-06-04T18:11:36;23.80;45.00
42907;DHT22;28552;51.146;6.576;2023-06-04T18:14:38;23.70;45.30
42907;DHT22;28552;51.146;6.576;2023-06-04T18:17:40;23.50;45.40
42907;DHT22;28552;51.146;6.576;2023-06-04T18:20:40;23.40;45.70
42907;DHT22;28552;51.146;6.576;2023-06-04T18:23:41;23.20;45.90
42907;DHT22;28552;51.146;6.576;2023-06-04T18:26:42;23.20;46.30
42907;DHT22;28552;51.146;6.576;2023-06-04T18:29:42;23.10;46.60
42907;DHT22;28552;51.146;6.576;2023-06-04T18:32:43;23.00;47.10
42907;DHT22;28552;51.146;6.576;2023-06-04T18:35:43;22.90;47.30
42907;DHT22;28552;51.146;6.576;2023-06-04T18:38:44;22.80;47.60
42907;DHT22;28552;51.146;6.576;2023-06-04T18:41:47;22.60;47.90
42907;DHT22;28552;51.146;6.576;2023-06-04T18:44:48;22.40;48.20
42907;DHT22;28552;51.146;6.576;2023-06-04T18:47:48;22.20;48.50
42907;DHT22;28552;51.146;6.576;2023-06-04T18:50:49;22.00;48.70
42907;DHT22;28552;51.146;6.576;2023-06-04T18:53:50;21.90;49.00
42907;DHT22;28552;51.146;6.576;2023-06-04T18:56:50;21.70;48.90
42907;DHT22;28552;51.146;6.576;2023-06-04T18:59:51;21.60;49.10
42907;DHT22;28552;51.146;6.576;2023-06-04T19:02:51;21.50;49.30
42907;DHT22;28552;51.146;6.576;2023-06-04T19:05:52;21.40;49.50
42907;DHT22;28552;51.146;6.576;2023-06-04T19:08:53;21.30;49.60
42907;DHT22;28552;51.146;6.576;2023-06-04T19:11:54;21.30;49.80